Portada
METAR-TAF:

METAR-TAF

Aeroports :

Teresina, Piauí, Brasil

latitud: 05-03S, longitud: 042-49W, altitud: 69 m

Observació

L'informe es va fer fa 43 minuts, a les 20:00 UTC
Vent 5 kt del Oest/Sud-Oest
Temperatura 37°C
Humitat 31%
Pressió 1005 hPa
Visibilitat 10 km o més
sense núvols per sota de 1500 mi sense presència de cumulonimbus.

METAR: SBTE 132000Z 25005KT CAVOK 37/17 Q1005

Hora: 17:43 (20:43 UTC)

Pronòstic

L'informe es va fer fa 4 hores i 43 minuts, a les 16:00 UTC
Pronòstic vàlid del 13 a les 18 UTC al 14 a les 06 UTC
Vent 8 kt del Sud-Est
Visibilitat 10 km o més
Escasses núvols a una alçada de 4000 ft
Evolucionant progressivament
l' 13 a les 22 UTC al 13 a les 24 UTC
Vent 5 kt del Nord

TAF: SBTE 131600Z 1318/1406 13008KT 9999 FEW040 TX37/1318Z TN26/1406Z BECMG 1322/1324 36005KT RMK PEH

Observacions i pronòstics meteorològics de més de 4000 aeroports (METAR i TAF).

Les estacions disponibles són els punts grocs i vermells al mapa.

Posi el ratolí al punt desitjat per veure el nom de l'estació.

Feu clic per veure les observacions i els pronòstics meteorològics.

Per canviar el mapa: feu clic els botons verds amb una creu de color negre per apropar; al botó verd amb un guió per allunyar la imatge; o en les fletxes verdes per a mapes adjacents.


METAR-TAF: